createdAt,value
2022-07-26T00:00:52.113Z,17.05
2022-07-26T00:03:19.525Z,20.15
2022-07-26T00:05:46.912Z,14.25
2022-07-26T00:08:14.444Z,13.63
2022-07-26T00:10:48.832Z,16.52
2022-07-26T00:13:20.409Z,13.43
2022-07-26T00:15:49.247Z,19.65
2022-07-26T00:18:18.152Z,17.00
2022-07-26T00:20:46.105Z,17.27
2022-07-26T00:23:14.688Z,15.00
2022-07-26T00:25:42.232Z,19.17
2022-07-26T00:28:09.675Z,19.17
2022-07-26T00:30:37.132Z,12.52
2022-07-26T00:33:05.351Z,16.83
2022-07-26T00:35:33.588Z,12.15
2022-07-26T00:38:01.028Z,15.98
2022-07-26T00:40:28.435Z,16.02
2022-07-26T00:42:55.918Z,11.38
2022-07-26T00:45:23.419Z,11.20
2022-07-26T00:47:50.964Z,14.80
2022-07-26T00:50:19.733Z,12.20
2022-07-26T00:52:49.905Z,14.30
2022-07-26T00:55:18.266Z,12.32
2022-07-26T00:57:45.783Z,11.25
2022-07-26T01:00:16.735Z,11.05
2022-07-26T01:02:44.665Z,11.07
2022-07-26T01:05:12.250Z,7.70
2022-07-26T01:07:41.839Z,7.82
2022-07-26T01:10:12.656Z,10.55
2022-07-26T01:12:42.196Z,8.90
2022-07-26T01:15:11.469Z,7.80
2022-07-26T01:17:39.074Z,8.98
2022-07-26T01:20:09.194Z,8.43
2022-07-26T01:22:37.033Z,5.32
2022-07-26T01:25:05.315Z,8.05
2022-07-26T01:27:34.671Z,7.07
2022-07-26T01:30:02.043Z,6.80
2022-07-26T01:32:29.425Z,6.32
2022-07-26T01:34:56.775Z,5.38
2022-07-26T01:37:24.140Z,6.03
2022-07-26T01:39:51.521Z,5.72
2022-07-26T01:42:19.003Z,7.43
2022-07-26T01:44:46.510Z,6.18
2022-07-26T01:47:13.827Z,6.15
2022-07-26T01:49:41.190Z,5.80
2022-07-26T01:52:08.583Z,4.15
2022-07-26T01:54:35.976Z,6.53
2022-07-26T01:57:03.616Z,5.13
2022-07-26T01:59:31.014Z,6.28
2022-07-26T02:02:00.839Z,7.03
2022-07-26T02:04:46.602Z,9.63
2022-07-26T02:07:14.031Z,4.70
2022-07-26T02:09:41.725Z,3.83
2022-07-26T02:12:09.283Z,5.35
2022-07-26T02:14:36.670Z,4.35
2022-07-26T02:17:04.096Z,6.47
2022-07-26T02:19:31.857Z,7.53
2022-07-26T02:22:00.023Z,9.00
2022-07-26T02:24:31.566Z,9.77
2022-07-26T02:27:00.603Z,5.72
2022-07-26T02:29:28.374Z,10.02
2022-07-26T02:31:56.344Z,3.47
2022-07-26T02:34:24.370Z,8.27
2022-07-26T02:36:51.809Z,5.47
2022-07-26T02:39:19.661Z,6.40
2022-07-26T02:41:47.446Z,3.70
2022-07-26T02:44:14.832Z,7.18
2022-07-26T02:46:42.279Z,5.90
2022-07-26T02:49:09.721Z,8.63
2022-07-26T02:51:37.165Z,6.75
2022-07-26T02:54:04.762Z,7.65
2022-07-26T02:56:32.385Z,6.65
2022-07-26T02:58:59.737Z,6.32
2022-07-26T03:01:27.245Z,6.95
2022-07-26T03:03:54.656Z,4.90
2022-07-26T03:06:22.020Z,4.55
2022-07-26T03:08:49.829Z,8.23
2022-07-26T03:11:17.200Z,5.10
2022-07-26T03:13:44.716Z,5.10
2022-07-26T03:16:12.159Z,5.68
2022-07-26T03:18:39.527Z,4.75
2022-07-26T03:21:07.469Z,6.40
2022-07-26T03:23:35.046Z,4.93
2022-07-26T03:26:02.953Z,9.13
2022-07-26T03:28:31.822Z,6.30
2022-07-26T03:30:59.738Z,5.03
2022-07-26T03:33:27.305Z,7.97
2022-07-26T03:35:54.804Z,11.27
2022-07-26T03:38:22.345Z,7.07
2022-07-26T03:40:49.702Z,7.30
2022-07-26T03:43:21.220Z,9.38
2022-07-26T03:45:54.268Z,6.18
2022-07-26T03:48:22.326Z,6.53
2022-07-26T03:50:50.065Z,6.95
2022-07-26T03:53:17.528Z,5.70
2022-07-26T03:56:03.201Z,7.40
2022-07-26T03:58:30.558Z,6.70
2022-07-26T04:00:57.874Z,4.35
2022-07-26T04:03:25.441Z,8.85
2022-07-26T04:05:52.881Z,10.43
2022-07-26T04:08:20.321Z,8.43
2022-07-26T04:10:51.244Z,9.57
2022-07-26T04:13:19.401Z,8.77
2022-07-26T04:15:47.298Z,9.50
2022-07-26T04:18:14.719Z,10.13
2022-07-26T04:20:42.852Z,5.28
2022-07-26T04:23:10.709Z,8.95
2022-07-26T04:25:41.011Z,7.90
2022-07-26T04:28:09.912Z,8.63
2022-07-26T04:30:37.663Z,8.80
2022-07-26T04:33:05.978Z,8.73
2022-07-26T04:35:34.285Z,12.02
2022-07-26T04:38:04.955Z,10.23
2022-07-26T04:40:34.968Z,6.07
2022-07-26T04:43:09.133Z,8.05
2022-07-26T04:45:43.439Z,7.88
2022-07-26T04:48:10.807Z,6.95
2022-07-26T04:50:38.262Z,8.82
2022-07-26T04:53:05.824Z,6.43
2022-07-26T04:55:33.197Z,7.78
2022-07-26T04:58:00.532Z,6.90
2022-07-26T05:00:27.886Z,6.80
2022-07-26T05:03:00.065Z,10.65
2022-07-26T05:05:30.261Z,7.50
2022-07-26T05:08:00.120Z,10.75
2022-07-26T05:10:35.151Z,6.80
2022-07-26T05:13:04.961Z,6.68
2022-07-26T05:15:35.040Z,6.82
2022-07-26T05:18:07.110Z,7.85
2022-07-26T05:20:36.242Z,8.60
2022-07-26T05:23:04.011Z,5.40
2022-07-26T05:25:31.364Z,8.15
2022-07-26T05:27:58.723Z,5.53
2022-07-26T05:30:26.476Z,6.07
2022-07-26T05:32:53.979Z,5.15
2022-07-26T05:35:21.496Z,6.47
2022-07-26T05:37:48.878Z,5.43
2022-07-26T05:40:16.649Z,3.47
2022-07-26T05:42:44.011Z,4.63
2022-07-26T05:45:11.720Z,6.80
2022-07-26T05:47:39.313Z,5.10
2022-07-26T05:50:07.364Z,3.08
2022-07-26T05:52:35.441Z,4.82
2022-07-26T05:55:02.869Z,5.50
2022-07-26T05:57:30.866Z,4.78
2022-07-26T05:59:58.165Z,4.57
2022-07-26T06:02:25.658Z,7.13
2022-07-26T06:04:53.161Z,8.13
2022-07-26T06:07:20.770Z,7.22
2022-07-26T06:09:48.225Z,6.32
2022-07-26T06:12:15.616Z,6.30
2022-07-26T06:14:43.063Z,7.82
2022-07-26T06:17:10.830Z,6.68
2022-07-26T06:19:38.477Z,6.60
2022-07-26T06:22:05.876Z,6.40
2022-07-26T06:24:33.315Z,6.35
2022-07-26T06:27:05.143Z,7.15
2022-07-26T06:29:33.630Z,3.85
2022-07-26T06:32:01.249Z,7.10
2022-07-26T06:34:28.976Z,5.90
2022-07-26T06:36:56.367Z,8.95
2022-07-26T06:39:23.898Z,5.43
2022-07-26T06:41:52.528Z,5.57
2022-07-26T06:44:23.002Z,8.20
2022-07-26T06:46:50.667Z,8.77
2022-07-26T06:49:22.036Z,6.53
2022-07-26T06:51:50.383Z,5.97
2022-07-26T06:54:17.911Z,5.35
2022-07-26T06:56:45.325Z,6.72
2022-07-26T06:59:14.244Z,6.88
2022-07-26T07:01:55.431Z,8.90
2022-07-26T07:04:32.971Z,7.68
2022-07-26T07:07:06.319Z,6.63
2022-07-26T07:09:36.282Z,3.10
2022-07-26T07:12:10.133Z,7.97
2022-07-26T07:14:39.174Z,4.63
2022-07-26T07:17:12.905Z,2.88
2022-07-26T07:19:40.909Z,6.93
2022-07-26T07:22:11.821Z,6.80
2022-07-26T07:24:41.202Z,7.75
2022-07-26T07:27:10.516Z,4.25
2022-07-26T07:29:41.459Z,3.58
2022-07-26T07:32:15.937Z,2.78
2022-07-26T07:34:47.990Z,4.93
2022-07-26T07:37:16.450Z,6.97
2022-07-26T07:39:48.746Z,3.05
2022-07-26T07:42:20.643Z,3.72
2022-07-26T07:44:50.130Z,5.97
2022-07-26T07:47:18.159Z,8.63
2022-07-26T07:49:45.595Z,4.65
2022-07-26T07:52:13.239Z,5.10
2022-07-26T07:54:40.743Z,4.45
2022-07-26T07:57:10.402Z,6.65
2022-07-26T07:59:39.149Z,4.10
2022-07-26T08:02:07.608Z,5.35
2022-07-26T08:04:35.840Z,9.48
2022-07-26T08:07:03.403Z,4.78
2022-07-26T08:09:30.759Z,3.97
2022-07-26T08:12:02.235Z,4.30
2022-07-26T08:14:30.056Z,2.97
2022-07-26T08:16:57.574Z,5.13
2022-07-26T08:19:40.818Z,5.28
2022-07-26T08:22:10.100Z,4.43
2022-07-26T08:24:38.282Z,5.35
2022-07-26T08:27:06.765Z,3.35
2022-07-26T08:29:34.149Z,5.47
2022-07-26T08:32:01.630Z,6.78
2022-07-26T08:34:29.080Z,3.35
2022-07-26T08:37:15.877Z,1.95
2022-07-26T08:39:43.928Z,3.25
2022-07-26T08:42:22.366Z,5.72
2022-07-26T08:44:51.600Z,6.75
2022-07-26T08:47:37.579Z,5.00
2022-07-26T08:50:08.919Z,4.97
2022-07-26T08:52:40.122Z,4.70
2022-07-26T08:55:07.836Z,6.85
2022-07-26T08:57:35.150Z,4.95
2022-07-26T09:00:29.802Z,5.57
2022-07-26T09:02:58.670Z,3.50
2022-07-26T09:05:35.144Z,5.90
2022-07-26T09:08:26.774Z,3.65
2022-07-26T09:10:54.529Z,5.40
2022-07-26T09:13:23.891Z,4.38
2022-07-26T09:16:09.692Z,3.28
2022-07-26T09:18:37.163Z,5.97
2022-07-26T09:21:04.627Z,2.25
2022-07-26T09:23:41.502Z,3.75
2022-07-26T09:26:09.080Z,7.05
2022-07-26T09:28:36.536Z,6.15
2022-07-26T09:31:12.870Z,5.53
2022-07-26T09:33:51.426Z,7.00
2022-07-26T09:36:19.187Z,5.07
2022-07-26T09:38:49.820Z,2.78
2022-07-26T09:41:22.023Z,5.57
2022-07-26T09:43:53.885Z,2.75
2022-07-26T09:46:23.682Z,2.38
2022-07-26T09:49:10.399Z,4.25
2022-07-26T09:51:41.300Z,3.92
2022-07-26T09:54:10.994Z,3.00
2022-07-26T09:56:43.278Z,4.53
2022-07-26T09:59:12.204Z,3.25
2022-07-26T10:01:39.842Z,2.00
2022-07-26T10:04:07.994Z,3.83
2022-07-26T10:06:38.994Z,4.88
2022-07-26T10:09:16.852Z,4.07
2022-07-26T10:11:56.325Z,2.60
2022-07-26T10:14:33.187Z,5.13
2022-07-26T10:17:04.499Z,5.07
2022-07-26T10:19:56.491Z,2.67
2022-07-26T10:22:25.965Z,4.22
2022-07-26T10:24:58.030Z,5.13
2022-07-26T10:27:40.176Z,4.18
2022-07-26T10:30:35.425Z,3.67
2022-07-26T10:33:20.462Z,3.33
2022-07-26T10:35:47.978Z,2.92
2022-07-26T10:38:27.192Z,4.05
2022-07-26T10:40:57.640Z,3.83
2022-07-26T10:43:41.973Z,3.03
2022-07-26T10:46:16.447Z,5.57
2022-07-26T10:49:04.172Z,6.15
2022-07-26T10:51:40.819Z,4.60
2022-07-26T10:54:13.202Z,5.25
2022-07-26T10:56:41.198Z,4.35
2022-07-26T10:59:08.855Z,6.65
2022-07-26T11:01:38.290Z,6.05
2022-07-26T11:04:17.482Z,4.65
2022-07-26T11:06:46.727Z,5.70
2022-07-26T11:09:20.725Z,5.15
2022-07-26T11:11:49.091Z,6.28
2022-07-26T11:14:21.071Z,3.72
2022-07-26T11:16:58.407Z,2.97
2022-07-26T11:19:31.202Z,2.75
2022-07-26T11:22:00.562Z,4.22
2022-07-26T11:24:28.709Z,5.47
2022-07-26T11:27:02.232Z,4.57
2022-07-26T11:29:38.716Z,3.33
2022-07-26T11:32:21.981Z,4.00
2022-07-26T11:35:04.367Z,3.13
2022-07-26T11:37:31.985Z,3.85
2022-07-26T11:39:59.361Z,5.13
2022-07-26T11:42:26.875Z,4.78
2022-07-26T11:44:54.401Z,4.47
2022-07-26T11:47:24.168Z,7.15
2022-07-26T11:52:41.485Z,4.07
2022-07-26T11:55:09.691Z,3.08
2022-07-26T11:57:37.397Z,3.95
2022-07-26T12:00:05.903Z,5.05
2022-07-26T12:05:19.792Z,8.75
2022-07-26T12:07:59.006Z,7.25
2022-07-26T12:10:27.631Z,6.63
2022-07-26T12:13:15.484Z,8.18
2022-07-26T12:15:50.152Z,5.93
2022-07-26T12:18:26.040Z,5.82
2022-07-26T12:21:29.530Z,6.45
2022-07-26T12:30:15.011Z,6.13
2022-07-26T12:32:44.077Z,14.48
2022-07-26T12:35:17.024Z,10.75
2022-07-26T12:37:47.613Z,8.45
2022-07-26T12:40:18.857Z,7.50
2022-07-26T12:42:55.889Z,4.03
2022-07-26T12:45:38.177Z,4.43
2022-07-26T12:48:11.008Z,5.50
2022-07-26T12:50:38.516Z,7.30
2022-07-26T12:53:09.019Z,7.85
2022-07-26T12:55:40.101Z,6.00
2022-07-26T12:58:07.451Z,7.20
2022-07-26T13:00:34.931Z,9.07
2022-07-26T13:03:02.344Z,7.05
2022-07-26T13:05:31.351Z,3.97
2022-07-26T13:07:58.822Z,6.05
2022-07-26T13:10:34.924Z,7.10
2022-07-26T13:13:04.847Z,8.23
2022-07-26T13:15:37.404Z,7.43
2022-07-26T13:18:07.388Z,6.25
2022-07-26T13:20:38.177Z,8.00
2022-07-26T13:23:09.693Z,6.70
2022-07-26T13:25:40.398Z,7.70
2022-07-26T13:28:09.262Z,9.65
2022-07-26T13:30:49.671Z,6.32
2022-07-26T13:33:20.030Z,7.10
2022-07-26T13:35:50.486Z,6.35
2022-07-26T13:38:19.663Z,6.00
2022-07-26T13:40:48.442Z,6.70
2022-07-26T13:49:46.681Z,5.85
2022-07-26T13:52:18.831Z,6.90
2022-07-26T13:54:46.416Z,6.38
2022-07-26T13:57:13.954Z,9.65
2022-07-26T13:59:41.410Z,6.30
2022-07-26T14:02:09.275Z,6.35
2022-07-26T14:04:37.081Z,9.85
2022-07-26T14:07:04.701Z,7.85
2022-07-26T14:09:35.127Z,4.20
2022-07-26T14:12:05.269Z,7.78
2022-07-26T14:14:41.430Z,4.75
2022-07-26T14:17:09.581Z,6.03
2022-07-26T14:19:36.989Z,5.10
2022-07-26T14:22:04.553Z,6.78
2022-07-26T14:24:33.153Z,6.15
2022-07-26T14:27:01.987Z,6.60
2022-07-26T14:29:30.495Z,4.32
2022-07-26T14:31:58.174Z,9.43
2022-07-26T14:34:25.962Z,4.63
2022-07-26T14:36:53.601Z,7.05
2022-07-26T14:39:21.149Z,3.97
2022-07-26T14:41:48.631Z,5.68
2022-07-26T14:44:16.051Z,4.57
2022-07-26T14:46:43.936Z,4.03
2022-07-26T14:49:11.433Z,5.75
2022-07-26T14:51:41.328Z,5.07
2022-07-26T14:54:09.782Z,5.00
2022-07-26T14:56:37.426Z,6.50
2022-07-26T14:59:04.882Z,4.88
2022-07-26T15:01:32.559Z,7.25
2022-07-26T15:03:59.925Z,6.88
2022-07-26T15:06:27.424Z,6.20
2022-07-26T15:08:56.190Z,4.85
2022-07-26T15:11:24.057Z,6.28
2022-07-26T15:13:53.035Z,4.50
2022-07-26T15:16:20.639Z,4.30
2022-07-26T15:18:48.544Z,4.65
2022-07-26T15:21:16.254Z,4.35
2022-07-26T15:23:43.814Z,6.38
2022-07-26T15:26:11.260Z,4.57
2022-07-26T15:28:38.773Z,4.63
2022-07-26T15:31:06.263Z,4.80
2022-07-26T15:33:33.784Z,3.97
2022-07-26T15:36:05.731Z,5.43
2022-07-26T15:38:33.655Z,5.82
2022-07-26T15:41:01.125Z,4.65
2022-07-26T15:43:48.008Z,5.88
2022-07-26T15:46:17.113Z,6.10
2022-07-26T15:48:45.583Z,7.65
2022-07-26T15:51:15.283Z,4.22
2022-07-26T15:53:46.489Z,5.63
2022-07-26T15:56:14.747Z,4.95
2022-07-26T15:58:42.277Z,5.90
2022-07-26T16:01:13.735Z,5.30
2022-07-26T16:03:41.185Z,4.15
2022-07-26T16:06:08.644Z,6.07
2022-07-26T16:08:47.437Z,6.05
2022-07-26T16:11:23.619Z,5.90
2022-07-26T16:13:50.980Z,4.40
2022-07-26T16:16:30.313Z,7.40
2022-07-26T16:18:58.107Z,6.28
2022-07-26T16:21:25.574Z,5.97
2022-07-26T16:23:53.187Z,5.38
2022-07-26T16:26:20.586Z,7.43
2022-07-26T16:28:47.962Z,7.10
2022-07-26T16:31:15.495Z,5.30
2022-07-26T16:33:46.350Z,7.28
2022-07-26T16:36:14.526Z,4.72
2022-07-26T16:38:41.897Z,6.53
2022-07-26T16:41:09.314Z,5.55
2022-07-26T16:43:36.784Z,7.47
2022-07-26T16:46:04.218Z,5.68
2022-07-26T16:48:31.696Z,7.00
2022-07-26T16:50:59.378Z,8.10
2022-07-26T16:53:27.501Z,6.53
2022-07-26T16:55:54.959Z,6.70
2022-07-26T16:58:22.848Z,5.95
2022-07-26T17:00:50.486Z,4.97
2022-07-26T17:03:18.340Z,6.32
2022-07-26T17:05:46.771Z,5.43
2022-07-26T17:08:14.172Z,5.93
2022-07-26T17:10:42.074Z,5.18
2022-07-26T17:13:09.669Z,5.78
2022-07-26T17:15:39.685Z,6.15
2022-07-26T17:18:07.072Z,7.30
2022-07-26T17:20:34.511Z,5.85
2022-07-26T17:23:02.015Z,4.22
2022-07-26T17:25:29.485Z,4.28
2022-07-26T17:27:57.187Z,5.07
2022-07-26T17:30:24.739Z,6.50
2022-07-26T17:32:52.354Z,6.72
2022-07-26T17:35:19.917Z,5.50
2022-07-26T17:37:47.474Z,4.97
2022-07-26T17:40:16.203Z,6.60
2022-07-26T17:42:43.944Z,5.32
2022-07-26T17:45:11.645Z,6.47
2022-07-26T17:47:42.142Z,3.97
2022-07-26T17:52:57.837Z,4.55
2022-07-26T17:55:25.346Z,4.10
2022-07-26T17:57:52.884Z,5.18
2022-07-26T18:00:22.398Z,5.45
2022-07-26T18:02:49.993Z,6.07
2022-07-26T18:05:18.962Z,7.03
2022-07-26T18:07:46.668Z,4.40
2022-07-26T18:10:14.510Z,4.05
2022-07-26T18:12:42.484Z,3.75
2022-07-26T18:15:10.989Z,4.15
2022-07-26T18:17:38.801Z,2.90
2022-07-26T18:20:07.388Z,4.70
2022-07-26T18:22:34.825Z,4.43
2022-07-26T18:25:03.904Z,3.45
2022-07-26T18:27:31.721Z,3.35
2022-07-26T18:29:59.693Z,3.85
2022-07-26T18:32:27.156Z,3.45
2022-07-26T18:34:55.346Z,6.38
2022-07-26T18:37:22.826Z,4.15
2022-07-26T18:39:55.467Z,3.40
2022-07-26T18:42:25.304Z,2.65
2022-07-26T18:44:53.052Z,3.38
2022-07-26T18:47:20.474Z,4.75
2022-07-26T18:49:47.994Z,4.30
2022-07-26T18:52:17.665Z,3.83
2022-07-26T18:54:57.097Z,4.43
2022-07-26T18:57:24.497Z,3.55
2022-07-26T18:59:51.867Z,3.88
2022-07-26T19:02:19.373Z,3.30
2022-07-26T19:04:46.757Z,2.08
2022-07-26T19:07:14.676Z,4.68
2022-07-26T19:09:42.150Z,5.80
2022-07-26T19:12:09.627Z,4.55
2022-07-26T19:14:36.951Z,5.78
2022-07-26T19:17:05.901Z,4.30
2022-07-26T19:19:33.321Z,6.47
2022-07-26T19:22:00.793Z,4.30
2022-07-26T19:24:42.069Z,6.75
2022-07-26T19:27:09.550Z,8.00
2022-07-26T19:29:37.741Z,5.20
2022-07-26T19:32:06.051Z,3.85
2022-07-26T19:34:33.678Z,4.97
2022-07-26T19:37:01.200Z,3.50
2022-07-26T19:39:28.958Z,4.15
2022-07-26T19:41:56.321Z,5.65
2022-07-26T19:44:23.772Z,5.15
2022-07-26T19:46:57.028Z,4.53
2022-07-26T19:49:25.366Z,1.48
2022-07-26T19:51:52.915Z,8.27
2022-07-26T19:54:21.341Z,2.90
2022-07-26T19:56:49.129Z,3.80
2022-07-26T19:59:22.645Z,3.35
2022-07-26T20:01:52.883Z,3.42
2022-07-26T20:04:20.822Z,5.10
2022-07-26T20:06:48.962Z,5.25
2022-07-26T20:09:16.401Z,2.97
2022-07-26T20:11:50.566Z,2.45
2022-07-26T20:14:19.831Z,4.15
2022-07-26T20:16:50.555Z,3.40
2022-07-26T20:21:48.846Z,4.00
2022-07-26T20:24:16.268Z,3.13
2022-07-26T20:26:43.720Z,1.63
2022-07-26T20:29:11.715Z,4.82
2022-07-26T20:31:39.423Z,6.28
2022-07-26T20:34:06.794Z,3.00
2022-07-26T20:36:34.221Z,4.72
2022-07-26T20:39:01.841Z,3.30
2022-07-26T20:41:33.790Z,5.10
2022-07-26T20:44:01.488Z,3.58
2022-07-26T20:46:29.019Z,3.10
2022-07-26T20:48:56.489Z,6.18
2022-07-26T20:51:24.165Z,2.63
2022-07-26T20:53:51.597Z,4.55
2022-07-26T20:56:19.017Z,5.25
2022-07-26T20:58:46.440Z,4.65
2022-07-26T21:01:14.606Z,5.47
2022-07-26T21:03:42.052Z,5.10
2022-07-26T21:06:09.603Z,4.53
2022-07-26T21:08:36.991Z,3.22
2022-07-26T21:11:04.434Z,4.22
2022-07-26T21:13:34.125Z,3.53
2022-07-26T21:16:01.562Z,2.92
2022-07-26T21:18:29.997Z,2.50
2022-07-26T21:20:58.085Z,5.05
2022-07-26T21:23:25.942Z,4.60
2022-07-26T21:26:00.797Z,1.90
2022-07-26T21:28:28.810Z,4.50
2022-07-26T21:30:57.556Z,6.75
2022-07-26T21:33:25.118Z,4.60
2022-07-26T21:35:52.507Z,3.42
2022-07-26T21:38:20.059Z,2.63
2022-07-26T21:40:47.591Z,7.25
2022-07-26T21:43:15.044Z,3.88
2022-07-26T21:45:42.394Z,4.20
2022-07-26T21:48:09.761Z,5.15
2022-07-26T21:50:37.193Z,3.17
2022-07-26T21:53:04.541Z,4.78
2022-07-26T21:55:31.985Z,4.53
2022-07-26T21:57:59.569Z,3.72
2022-07-26T22:00:26.934Z,5.82
2022-07-26T22:02:54.531Z,3.60
2022-07-26T22:05:42.330Z,7.32
2022-07-26T22:08:14.666Z,4.00
2022-07-26T22:10:45.143Z,3.95
2022-07-26T22:13:14.191Z,3.65
2022-07-26T22:15:42.533Z,4.10
2022-07-26T22:18:10.428Z,5.93
2022-07-26T22:20:38.538Z,4.32
2022-07-26T22:23:09.252Z,4.90
2022-07-26T22:25:38.314Z,5.60
2022-07-26T22:28:07.433Z,3.58
2022-07-26T22:30:35.334Z,2.50
2022-07-26T22:33:04.146Z,7.20
2022-07-26T22:35:36.607Z,3.15
2022-07-26T22:38:06.777Z,5.60
2022-07-26T22:40:34.892Z,3.30
2022-07-26T22:43:02.343Z,4.55
2022-07-26T22:45:30.579Z,3.40
2022-07-26T22:47:58.453Z,5.63
2022-07-26T22:50:25.903Z,4.55
2022-07-26T22:52:53.776Z,4.00
2022-07-26T22:55:21.546Z,7.57
2022-07-26T22:57:49.128Z,3.42
2022-07-26T23:00:19.052Z,4.57
2022-07-26T23:02:47.847Z,2.60
2022-07-26T23:05:16.479Z,2.03
2022-07-26T23:07:46.002Z,5.22
2022-07-26T23:10:16.632Z,5.10
2022-07-26T23:12:44.554Z,6.50
2022-07-26T23:15:12.546Z,3.92
2022-07-26T23:17:40.234Z,5.97
2022-07-26T23:20:09.493Z,6.45
2022-07-26T23:22:38.224Z,7.10
2022-07-26T23:25:06.629Z,4.82
2022-07-26T23:27:34.088Z,5.85
2022-07-26T23:30:01.610Z,4.18
2022-07-26T23:32:29.131Z,6.35
2022-07-26T23:34:56.499Z,2.65
2022-07-26T23:37:23.899Z,5.70
2022-07-26T23:39:51.252Z,4.88
2022-07-26T23:42:18.662Z,7.80
2022-07-26T23:44:45.986Z,5.38
2022-07-26T23:47:13.795Z,3.67
2022-07-26T23:49:41.295Z,6.05
2022-07-26T23:52:08.752Z,4.13
2022-07-26T23:54:36.936Z,5.32
2022-07-26T23:57:04.408Z,6.28
2022-07-26T23:59:31.853Z,8.57
